createdAt,value
2022-12-03T00:00:16.823Z,13.20
2022-12-03T00:01:37.983Z,23.58
2022-12-03T00:02:59.327Z,73.93
2022-12-03T00:04:20.490Z,63.97
2022-12-03T00:05:48.299Z,58.15
2022-12-03T00:07:09.946Z,43.78
2022-12-03T00:08:31.231Z,37.50
2022-12-03T00:09:52.464Z,46.83
2022-12-03T00:11:13.726Z,47.97
2022-12-03T00:12:35.185Z,31.42
2022-12-03T00:13:56.101Z,35.00
2022-12-03T00:15:17.506Z,40.03
2022-12-03T00:16:38.351Z,29.92
2022-12-03T00:17:59.792Z,36.97
2022-12-03T00:19:21.156Z,37.58
2022-12-03T00:20:42.460Z,41.35
2022-12-03T00:22:03.700Z,41.75
2022-12-03T00:23:25.309Z,35.03
2022-12-03T00:24:46.824Z,35.40
2022-12-03T00:26:07.903Z,39.05
2022-12-03T00:27:28.660Z,37.85
2022-12-03T00:28:49.949Z,40.75
2022-12-03T00:30:11.723Z,39.88
2022-12-03T00:31:33.120Z,36.03
2022-12-03T00:32:54.081Z,34.25
2022-12-03T00:34:15.500Z,34.72
2022-12-03T00:35:36.688Z,31.60
2022-12-03T00:36:58.005Z,28.33
2022-12-03T00:38:19.218Z,30.25
2022-12-03T00:39:40.414Z,30.77
2022-12-03T00:41:01.283Z,28.63
2022-12-03T00:42:22.556Z,28.63
2022-12-03T00:43:43.802Z,31.17
2022-12-03T00:45:06.632Z,24.83
2022-12-03T00:46:27.773Z,21.73
2022-12-03T00:47:48.840Z,21.58
2022-12-03T00:49:10.071Z,23.63
2022-12-03T00:50:31.483Z,22.67
2022-12-03T00:51:52.706Z,23.83
2022-12-03T00:53:13.593Z,23.40
2022-12-03T00:54:34.885Z,23.63
2022-12-03T00:55:55.759Z,28.25
2022-12-03T00:57:17.866Z,27.33
2022-12-03T00:58:39.114Z,27.98
2022-12-03T01:00:00.251Z,28.05
2022-12-03T01:01:21.595Z,22.35
2022-12-03T01:02:42.421Z,19.77
2022-12-03T01:04:04.039Z,18.27
2022-12-03T01:05:25.278Z,19.90
2022-12-03T01:06:46.393Z,19.77
2022-12-03T01:08:07.648Z,19.33
2022-12-03T01:09:28.577Z,17.13
2022-12-03T01:10:49.633Z,18.50
2022-12-03T01:12:12.145Z,16.33
2022-12-03T01:13:33.300Z,14.50
2022-12-03T01:14:54.982Z,12.00
2022-12-03T01:16:16.356Z,9.48
2022-12-03T01:17:38.278Z,10.25
2022-12-03T01:18:59.156Z,11.02
2022-12-03T01:20:20.448Z,7.68
2022-12-03T01:21:46.622Z,10.98
2022-12-03T01:23:08.057Z,15.82
2022-12-03T01:24:29.330Z,22.75
2022-12-03T01:25:50.183Z,13.70
2022-12-03T01:27:11.422Z,12.07
2022-12-03T01:28:32.630Z,17.23
2022-12-03T01:29:53.718Z,24.23
2022-12-03T01:31:33.303Z,23.50
2022-12-03T01:32:54.853Z,18.13
2022-12-03T01:34:16.076Z,17.65
2022-12-03T01:35:36.839Z,27.98
2022-12-03T01:36:58.360Z,17.55
2022-12-03T01:38:19.187Z,19.77
2022-12-03T01:39:40.933Z,17.42
2022-12-03T01:41:05.919Z,18.42
2022-12-03T01:42:33.036Z,21.13
2022-12-03T01:43:55.356Z,15.35
2022-12-03T01:45:23.854Z,13.75
2022-12-03T01:46:46.665Z,13.38
2022-12-03T01:48:09.660Z,13.48
2022-12-03T01:49:43.067Z,12.52
2022-12-03T01:51:04.415Z,15.35
2022-12-03T01:52:30.395Z,15.40
2022-12-03T01:53:51.738Z,14.90
2022-12-03T01:55:26.518Z,14.98
2022-12-03T01:56:48.286Z,15.45
2022-12-03T01:58:13.771Z,14.93
2022-12-03T01:59:38.676Z,14.38
2022-12-03T02:01:02.729Z,13.85
2022-12-03T02:02:29.904Z,14.82
2022-12-03T02:03:50.990Z,14.73
2022-12-03T02:05:18.946Z,16.23
2022-12-03T02:06:40.715Z,17.33
2022-12-03T02:08:02.118Z,18.27
2022-12-03T02:09:23.440Z,21.63
2022-12-03T02:10:44.589Z,22.85
2022-12-03T02:12:06.205Z,22.60
2022-12-03T02:13:27.515Z,23.52
2022-12-03T02:14:49.306Z,26.30
2022-12-03T02:16:11.048Z,30.38
2022-12-03T02:17:32.786Z,30.52
2022-12-03T02:18:53.680Z,27.23
2022-12-03T02:20:14.880Z,26.40
2022-12-03T02:21:48.088Z,25.80
2022-12-03T02:23:43.736Z,26.73
2022-12-03T02:25:24.675Z,26.75
2022-12-03T02:26:46.282Z,28.83
2022-12-03T02:28:09.781Z,28.40
2022-12-03T02:29:31.050Z,28.38
2022-12-03T02:30:51.900Z,30.08
2022-12-03T02:32:13.080Z,29.73
2022-12-03T02:33:34.640Z,31.88
2022-12-03T02:34:56.684Z,32.80
2022-12-03T02:36:18.133Z,34.10
2022-12-03T02:37:38.913Z,31.10
2022-12-03T02:39:00.922Z,32.70
2022-12-03T02:40:24.650Z,30.98
2022-12-03T02:42:04.075Z,26.95
2022-12-03T02:43:25.810Z,22.88
2022-12-03T02:44:46.987Z,20.30
2022-12-03T02:46:09.058Z,18.65
2022-12-03T02:47:32.114Z,18.02
2022-12-03T02:48:53.053Z,18.27
2022-12-03T02:50:18.542Z,18.58
2022-12-03T02:51:39.439Z,17.17
2022-12-03T02:53:03.843Z,18.38
2022-12-03T02:54:25.563Z,21.17
2022-12-03T02:55:47.790Z,27.67
2022-12-03T02:57:09.064Z,26.88
2022-12-03T02:58:32.744Z,26.80
2022-12-03T02:59:53.850Z,25.83
2022-12-03T03:01:15.847Z,24.58
2022-12-03T03:02:39.224Z,24.58
2022-12-03T03:04:02.683Z,24.63
2022-12-03T03:05:24.406Z,22.20
2022-12-03T03:06:46.929Z,18.98
2022-12-03T03:08:09.029Z,16.10
2022-12-03T03:09:30.222Z,18.20
2022-12-03T03:10:51.726Z,12.18
2022-12-03T03:12:12.966Z,9.00
2022-12-03T03:13:35.572Z,8.82
2022-12-03T03:14:58.390Z,9.15
2022-12-03T03:16:19.714Z,9.05
2022-12-03T03:17:42.502Z,9.05
2022-12-03T03:19:03.666Z,11.60
2022-12-03T03:20:24.604Z,6.10
2022-12-03T03:21:46.029Z,14.20
2022-12-03T03:23:17.933Z,10.15
2022-12-03T03:24:39.342Z,9.05
2022-12-03T03:26:05.577Z,6.75
2022-12-03T03:27:27.148Z,6.00
2022-12-03T03:28:50.296Z,5.22
2022-12-03T03:30:12.069Z,5.53
2022-12-03T03:31:33.161Z,5.32
2022-12-03T03:32:54.170Z,64.97
2022-12-03T03:34:15.978Z,65.60
2022-12-03T03:35:38.125Z,58.58
2022-12-03T03:36:59.305Z,61.65
2022-12-03T03:38:22.188Z,64.00
2022-12-03T03:39:43.385Z,54.40
2022-12-03T03:41:06.202Z,49.20
2022-12-03T03:42:27.593Z,29.13
2022-12-03T03:43:50.060Z,9.93
2022-12-03T03:45:12.722Z,8.30
2022-12-03T03:46:35.259Z,5.18
2022-12-03T03:48:00.134Z,4.60
2022-12-03T03:49:22.181Z,4.38
2022-12-03T03:50:44.587Z,4.60
2022-12-03T03:52:05.861Z,4.00
2022-12-03T03:53:27.092Z,3.88
2022-12-03T03:54:48.264Z,4.57
2022-12-03T03:56:09.966Z,5.05
2022-12-03T03:57:30.939Z,3.88
2022-12-03T03:58:52.196Z,3.67
2022-12-03T04:00:13.590Z,3.80
2022-12-03T04:01:35.108Z,3.40
2022-12-03T04:02:56.550Z,6.53
2022-12-03T04:04:20.943Z,7.85
2022-12-03T04:05:42.032Z,13.38
2022-12-03T04:07:03.296Z,16.08
2022-12-03T04:08:24.600Z,8.82
2022-12-03T04:09:45.673Z,6.75
2022-12-03T04:11:29.848Z,5.22
2022-12-03T04:12:56.855Z,5.60
2022-12-03T04:14:17.888Z,4.40
2022-12-03T04:15:39.367Z,5.18
2022-12-03T04:17:02.741Z,4.63
2022-12-03T04:18:42.223Z,3.58
2022-12-03T04:20:03.895Z,3.47
2022-12-03T04:21:43.309Z,3.10
2022-12-03T04:23:05.016Z,3.08
2022-12-03T04:24:26.150Z,3.70
2022-12-03T04:26:05.643Z,2.85
2022-12-03T04:27:45.370Z,2.78
2022-12-03T04:29:06.225Z,3.75
2022-12-03T04:30:27.610Z,3.22
2022-12-03T04:32:07.292Z,3.95
2022-12-03T04:33:46.618Z,2.70
2022-12-03T04:35:28.369Z,2.97
2022-12-03T04:36:49.771Z,3.08
2022-12-03T04:38:12.000Z,3.28
2022-12-03T04:39:33.278Z,4.43
2022-12-03T04:41:06.452Z,7.82
2022-12-03T04:42:27.633Z,9.68
2022-12-03T04:44:07.029Z,12.60
2022-12-03T04:45:28.066Z,10.05
2022-12-03T04:46:49.236Z,11.98
2022-12-03T04:48:10.658Z,11.57
2022-12-03T04:49:32.418Z,11.18
2022-12-03T04:50:53.832Z,11.13
2022-12-03T04:52:16.662Z,12.32
2022-12-03T04:53:41.895Z,13.98
2022-12-03T04:55:07.200Z,13.45
2022-12-03T04:56:28.155Z,15.95
2022-12-03T04:57:49.373Z,17.55
2022-12-03T04:59:15.758Z,26.42
2022-12-03T05:00:37.074Z,26.17
2022-12-03T05:01:58.588Z,27.98
2022-12-03T05:03:19.674Z,27.60
2022-12-03T05:04:41.128Z,28.15
2022-12-03T05:06:02.248Z,29.25
2022-12-03T05:07:23.500Z,29.98
2022-12-03T05:08:44.649Z,28.98
2022-12-03T05:10:06.931Z,30.80
2022-12-03T05:11:28.250Z,27.83
2022-12-03T05:12:49.283Z,25.48
2022-12-03T05:14:11.262Z,20.20
2022-12-03T05:15:32.361Z,25.35
2022-12-03T05:16:53.293Z,31.23
2022-12-03T05:18:14.398Z,65.00
2022-12-03T05:19:53.948Z,56.97
2022-12-03T05:21:15.168Z,52.38
2022-12-03T05:22:36.723Z,56.95
2022-12-03T05:23:57.924Z,53.95
2022-12-03T05:25:18.775Z,60.40
2022-12-03T05:26:39.791Z,50.40
2022-12-03T05:28:00.710Z,45.20
2022-12-03T05:29:22.061Z,48.20
2022-12-03T05:30:44.287Z,48.95
2022-12-03T05:32:24.206Z,44.45
2022-12-03T05:33:45.269Z,43.30
2022-12-03T05:35:06.787Z,39.85
2022-12-03T05:36:27.946Z,35.47
2022-12-03T05:37:48.979Z,29.35
2022-12-03T05:39:10.295Z,37.28
2022-12-03T05:40:31.536Z,36.00
2022-12-03T05:42:11.294Z,36.35
2022-12-03T05:43:32.155Z,42.95
2022-12-03T05:44:53.521Z,31.55
2022-12-03T05:46:14.741Z,34.80
2022-12-03T05:47:35.919Z,50.15
2022-12-03T05:48:57.163Z,44.60
2022-12-03T05:50:19.546Z,36.63
2022-12-03T05:51:40.435Z,33.08
2022-12-03T05:53:01.636Z,30.55
2022-12-03T05:54:23.115Z,29.55
2022-12-03T05:55:44.407Z,45.35
2022-12-03T05:57:05.599Z,42.03
2022-12-03T05:58:26.941Z,47.75
2022-12-03T05:59:47.950Z,76.30
2022-12-03T06:01:08.707Z,43.90
2022-12-03T06:02:30.091Z,52.95
2022-12-03T06:03:51.319Z,45.20
2022-12-03T06:05:14.710Z,50.03
2022-12-03T06:06:35.693Z,45.28
2022-12-03T06:07:56.744Z,41.47
2022-12-03T06:09:18.060Z,47.08
2022-12-03T06:10:39.342Z,45.30
2022-12-03T06:12:00.906Z,45.90
2022-12-03T06:13:21.911Z,44.83
2022-12-03T06:14:43.093Z,42.85
2022-12-03T06:16:04.457Z,48.40
2022-12-03T06:17:25.696Z,44.72
2022-12-03T06:18:46.706Z,43.47
2022-12-03T06:20:09.140Z,42.22
2022-12-03T06:21:30.129Z,47.33
2022-12-03T06:22:51.463Z,52.92
2022-12-03T06:24:12.992Z,84.55
2022-12-03T06:25:34.227Z,88.78
2022-12-03T06:26:55.709Z,78.93
2022-12-03T06:28:16.602Z,73.75
2022-12-03T06:29:37.988Z,91.72
2022-12-03T06:30:58.955Z,71.38
2022-12-03T06:32:20.118Z,63.53
2022-12-03T06:33:41.039Z,67.20
2022-12-03T06:35:02.460Z,66.97
2022-12-03T06:36:23.662Z,56.97
2022-12-03T06:37:44.864Z,59.25
2022-12-03T06:39:06.065Z,58.88
2022-12-03T06:40:27.365Z,55.83
2022-12-03T06:41:48.635Z,52.80
2022-12-03T06:43:09.931Z,56.45
2022-12-03T06:44:30.682Z,55.08
2022-12-03T06:45:51.747Z,65.40
2022-12-03T06:47:12.973Z,73.72
2022-12-03T06:48:34.342Z,80.75
2022-12-03T06:49:55.561Z,73.63
2022-12-03T06:51:16.588Z,101.50
2022-12-03T06:52:37.774Z,107.68
2022-12-03T06:53:59.086Z,129.88
2022-12-03T06:55:20.242Z,116.15
2022-12-03T06:56:45.194Z,101.32
2022-12-03T06:58:06.407Z,98.72
2022-12-03T06:59:28.815Z,86.32
2022-12-03T07:00:49.986Z,77.55
2022-12-03T07:02:12.651Z,78.80
2022-12-03T07:03:33.925Z,66.88
2022-12-03T07:04:55.096Z,61.95
2022-12-03T07:06:16.648Z,53.78
2022-12-03T07:07:37.660Z,66.88
2022-12-03T07:08:58.791Z,75.63
2022-12-03T07:10:20.027Z,79.53
2022-12-03T07:11:41.055Z,76.15
2022-12-03T07:13:02.584Z,71.22
2022-12-03T07:14:23.617Z,70.72
2022-12-03T07:15:44.882Z,64.75
2022-12-03T07:17:06.085Z,49.65
2022-12-03T07:18:27.378Z,53.40
2022-12-03T07:19:48.379Z,51.85
2022-12-03T07:21:09.811Z,54.45
2022-12-03T07:22:30.908Z,54.13
2022-12-03T07:23:52.188Z,58.03
2022-12-03T07:25:19.540Z,71.15
2022-12-03T07:26:44.196Z,101.88
2022-12-03T07:28:05.455Z,107.55
2022-12-03T07:29:26.381Z,104.18
2022-12-03T07:30:47.210Z,102.78
2022-12-03T07:32:08.424Z,97.07
2022-12-03T07:33:29.367Z,92.93
2022-12-03T07:34:51.673Z,80.32
2022-12-03T07:36:13.168Z,62.53
2022-12-03T07:37:34.784Z,83.88
2022-12-03T07:38:57.100Z,50.40
2022-12-03T07:40:20.268Z,123.20
2022-12-03T07:41:41.450Z,177.02
2022-12-03T07:43:04.908Z,135.75
2022-12-03T07:44:26.466Z,128.60
2022-12-03T07:45:47.963Z,58.83
2022-12-03T07:47:09.017Z,59.10
2022-12-03T07:48:30.252Z,44.20
2022-12-03T07:49:52.452Z,41.70
2022-12-03T07:51:15.597Z,129.80
2022-12-03T07:52:36.885Z,120.18
2022-12-03T07:53:58.122Z,52.55
2022-12-03T07:55:20.052Z,87.97
2022-12-03T07:56:42.590Z,62.85
2022-12-03T07:58:03.736Z,103.35
2022-12-03T07:59:24.844Z,60.50
2022-12-03T08:00:45.905Z,64.30
2022-12-03T08:02:07.174Z,66.07
2022-12-03T08:03:28.496Z,52.55
2022-12-03T08:04:49.525Z,115.47
2022-12-03T08:06:10.808Z,128.35
2022-12-03T08:07:31.968Z,111.80
2022-12-03T08:08:52.775Z,72.45
2022-12-03T08:10:13.877Z,47.28
2022-12-03T08:11:35.029Z,54.92
2022-12-03T08:12:59.282Z,56.40
2022-12-03T08:14:20.918Z,33.53
2022-12-03T08:15:42.338Z,76.03
2022-12-03T08:17:10.075Z,36.22
2022-12-03T08:18:31.343Z,19.67
2022-12-03T08:19:53.345Z,20.08
2022-12-03T08:21:17.157Z,20.35
2022-12-03T08:22:38.256Z,14.73
2022-12-03T08:23:59.564Z,13.07
2022-12-03T08:25:30.502Z,23.98
2022-12-03T08:26:51.665Z,13.85
2022-12-03T08:28:19.160Z,12.05
2022-12-03T08:29:40.229Z,13.82
2022-12-03T08:31:18.095Z,16.73
2022-12-03T08:32:39.148Z,15.10
2022-12-03T08:34:26.222Z,40.97
2022-12-03T08:35:50.885Z,36.70
2022-12-03T08:37:21.195Z,17.88
2022-12-03T08:38:49.417Z,29.92
2022-12-03T08:40:23.795Z,18.38
2022-12-03T08:42:05.165Z,28.88
2022-12-03T08:43:32.959Z,19.40
2022-12-03T08:44:55.776Z,16.70
2022-12-03T08:46:19.488Z,17.45
2022-12-03T08:47:40.815Z,26.27
2022-12-03T08:49:02.017Z,31.30
2022-12-03T08:50:32.135Z,27.35
2022-12-03T08:52:00.562Z,13.82
2022-12-03T08:53:36.255Z,13.73
2022-12-03T08:54:57.890Z,10.73
2022-12-03T08:56:28.037Z,152.93
2022-12-03T08:59:32.358Z,24.35
2022-12-03T09:01:16.587Z,25.23
2022-12-03T09:02:37.787Z,23.02
2022-12-03T09:04:16.320Z,18.63
2022-12-03T09:05:37.494Z,17.52
2022-12-03T09:06:58.882Z,14.18
2022-12-03T09:08:20.197Z,12.00
2022-12-03T09:09:41.870Z,12.93
2022-12-03T09:11:02.948Z,15.38
2022-12-03T09:12:24.215Z,17.63
2022-12-03T09:13:45.534Z,16.27
2022-12-03T09:15:07.366Z,17.17
2022-12-03T09:16:28.561Z,12.68
2022-12-03T09:17:49.900Z,11.73
2022-12-03T09:19:10.751Z,17.88
2022-12-03T09:20:35.019Z,13.10
2022-12-03T09:21:58.609Z,14.00
2022-12-03T09:23:19.538Z,14.70
2022-12-03T09:24:40.733Z,12.80
2022-12-03T09:26:02.074Z,37.42
2022-12-03T09:27:23.282Z,22.10
2022-12-03T09:28:44.613Z,14.63
2022-12-03T09:30:06.529Z,15.05
2022-12-03T09:31:27.559Z,26.80
2022-12-03T09:32:48.712Z,15.10
2022-12-03T09:34:10.314Z,28.98
2022-12-03T09:35:31.210Z,35.53
2022-12-03T09:36:52.573Z,22.75
2022-12-03T09:38:13.934Z,26.45
2022-12-03T09:39:35.465Z,18.23
2022-12-03T09:40:56.835Z,16.63
2022-12-03T09:42:18.563Z,18.90
2022-12-03T09:45:20.850Z,19.60
2022-12-03T09:46:43.281Z,21.20
2022-12-03T09:48:04.888Z,21.05
2022-12-03T09:49:27.291Z,20.02
2022-12-03T09:50:49.484Z,28.65
2022-12-03T09:52:21.385Z,19.75
2022-12-03T09:53:42.951Z,31.70
2022-12-03T09:55:11.644Z,14.73
2022-12-03T09:56:35.910Z,12.43
2022-12-03T09:57:57.538Z,20.60
2022-12-03T09:59:19.123Z,14.68
2022-12-03T10:00:41.884Z,11.00
2022-12-03T10:02:03.558Z,12.10
2022-12-03T10:03:30.258Z,12.50
2022-12-03T10:04:53.397Z,12.40
2022-12-03T10:06:21.105Z,14.50
2022-12-03T10:07:42.731Z,13.90
2022-12-03T10:09:04.395Z,18.83
2022-12-03T10:10:25.364Z,23.35
2022-12-03T10:11:46.179Z,23.77
2022-12-03T10:13:12.431Z,13.93
2022-12-03T10:14:33.308Z,16.10
2022-12-03T10:15:56.810Z,16.98
2022-12-03T10:17:18.176Z,17.58
2022-12-03T10:18:43.611Z,11.65
2022-12-03T10:20:05.494Z,11.55
2022-12-03T10:21:40.299Z,12.18
2022-12-03T10:23:01.170Z,8.65
2022-12-03T10:24:27.278Z,7.82
2022-12-03T10:26:00.190Z,17.58
2022-12-03T10:27:31.032Z,8.52
2022-12-03T10:28:53.258Z,9.18
2022-12-03T10:30:23.311Z,9.38
2022-12-03T10:31:45.033Z,18.27
2022-12-03T10:33:17.376Z,20.42
2022-12-03T10:34:41.887Z,15.38
2022-12-03T10:36:15.415Z,9.13
2022-12-03T10:37:36.628Z,8.75
2022-12-03T10:39:16.910Z,10.85
2022-12-03T10:40:39.656Z,15.48
2022-12-03T10:42:16.216Z,15.13
2022-12-03T10:43:37.475Z,11.60
2022-12-03T10:45:24.865Z,18.88
2022-12-03T10:47:05.334Z,18.27
2022-12-03T10:48:27.546Z,13.25
2022-12-03T10:50:03.286Z,15.57
2022-12-03T10:51:24.552Z,15.40
2022-12-03T10:52:46.642Z,17.45
2022-12-03T10:54:35.504Z,18.20
2022-12-03T10:55:59.798Z,15.50
2022-12-03T10:57:21.314Z,19.35
2022-12-03T10:58:42.438Z,18.30
2022-12-03T11:00:04.639Z,17.23
2022-12-03T11:01:27.020Z,20.75
2022-12-03T11:02:56.080Z,19.25
2022-12-03T11:04:20.864Z,19.48
2022-12-03T11:05:41.897Z,20.70
2022-12-03T11:07:09.923Z,14.77
2022-12-03T11:08:34.776Z,12.93
2022-12-03T11:09:56.022Z,15.98
2022-12-03T11:11:39.510Z,15.68
2022-12-03T11:13:44.321Z,18.35
2022-12-03T11:15:07.289Z,55.75
2022-12-03T11:16:51.557Z,96.38
2022-12-03T11:18:38.593Z,173.88
2022-12-03T11:19:59.687Z,82.97
2022-12-03T11:21:20.776Z,29.08
2022-12-03T11:22:47.254Z,48.40
2022-12-03T11:24:19.837Z,32.42
2022-12-03T11:25:50.739Z,14.05
2022-12-03T11:27:11.972Z,15.70
2022-12-03T11:28:35.700Z,30.45
2022-12-03T11:30:00.450Z,22.00
2022-12-03T11:31:33.400Z,25.17
2022-12-03T11:32:54.580Z,21.15
2022-12-03T11:34:18.530Z,21.73
2022-12-03T11:36:02.059Z,22.98
2022-12-03T11:37:24.583Z,20.08
2022-12-03T11:38:54.605Z,25.67
2022-12-03T11:40:18.793Z,24.77
2022-12-03T11:41:40.041Z,19.38
2022-12-03T11:43:02.152Z,24.17
2022-12-03T11:44:32.461Z,21.83
2022-12-03T11:45:55.421Z,23.83
2022-12-03T11:47:18.646Z,31.27
2022-12-03T11:48:46.488Z,24.67
2022-12-03T11:50:19.882Z,18.38
2022-12-03T11:51:44.862Z,18.05
2022-12-03T11:53:35.654Z,21.40
2022-12-03T11:55:04.378Z,59.33
2022-12-03T11:56:28.735Z,39.05
2022-12-03T11:57:56.704Z,42.95
2022-12-03T11:59:19.286Z,24.33
2022-12-03T12:00:48.464Z,24.50
2022-12-03T12:02:29.660Z,20.10
2022-12-03T12:03:50.926Z,40.55
2022-12-03T12:05:20.037Z,21.08
2022-12-03T12:06:43.287Z,17.55
2022-12-03T12:08:04.774Z,34.17
2022-12-03T12:09:55.013Z,47.78
2022-12-03T12:11:20.343Z,30.30
2022-12-03T12:12:51.067Z,20.88
2022-12-03T12:14:26.453Z,30.58
2022-12-03T12:15:47.533Z,27.63
2022-12-03T12:17:29.875Z,24.67
2022-12-03T12:18:55.173Z,22.17
2022-12-03T12:20:27.236Z,33.53
2022-12-03T12:21:48.618Z,69.78
2022-12-03T12:23:27.902Z,17.17
2022-12-03T12:25:00.094Z,17.58
2022-12-03T12:26:21.280Z,25.92
2022-12-03T12:27:47.280Z,19.85
2022-12-03T12:29:08.356Z,13.13
2022-12-03T12:30:29.579Z,12.43
2022-12-03T12:31:54.174Z,14.10
2022-12-03T12:33:24.457Z,14.48
2022-12-03T12:34:50.876Z,15.63
2022-12-03T12:36:12.028Z,47.50
2022-12-03T12:37:36.993Z,15.38
2022-12-03T12:38:59.873Z,14.32
2022-12-03T12:40:24.712Z,16.70
2022-12-03T12:41:48.963Z,15.48
2022-12-03T12:43:29.626Z,19.30
2022-12-03T12:44:50.685Z,17.60
2022-12-03T12:46:46.134Z,44.25
2022-12-03T12:48:10.159Z,18.23
2022-12-03T12:49:31.595Z,22.92
2022-12-03T12:51:10.984Z,47.47
2022-12-03T12:52:32.277Z,16.30
2022-12-03T12:53:53.908Z,30.23
2022-12-03T12:55:16.603Z,16.42
2022-12-03T12:56:37.735Z,25.90
2022-12-03T12:58:05.814Z,158.35
2022-12-03T12:59:26.864Z,83.55
2022-12-03T13:00:54.726Z,59.13
2022-12-03T13:02:31.735Z,116.00
2022-12-03T13:03:53.421Z,42.97
2022-12-03T13:05:14.716Z,13.70
2022-12-03T13:06:36.135Z,11.38
2022-12-03T13:07:57.307Z,36.92
2022-12-03T13:09:23.817Z,25.80
2022-12-03T13:10:45.498Z,15.13
2022-12-03T13:12:19.571Z,10.00
2022-12-03T13:13:44.231Z,9.93
2022-12-03T13:15:21.607Z,8.45
2022-12-03T13:16:43.256Z,7.80
2022-12-03T13:18:39.867Z,10.32
2022-12-03T13:20:07.668Z,10.63
2022-12-03T13:21:41.384Z,13.00
2022-12-03T13:23:02.455Z,10.20
2022-12-03T13:24:34.224Z,9.50
2022-12-03T13:26:03.706Z,6.05
2022-12-03T13:27:30.729Z,7.75
2022-12-03T13:28:53.630Z,8.43
2022-12-03T13:30:18.977Z,10.77
2022-12-03T13:31:43.845Z,15.02
2022-12-03T13:33:26.588Z,10.55
2022-12-03T13:34:48.048Z,11.90
2022-12-03T13:36:15.162Z,9.45
2022-12-03T13:37:37.626Z,15.15
2022-12-03T13:38:58.781Z,11.32
2022-12-03T13:40:32.961Z,13.93
2022-12-03T13:42:13.467Z,14.88
2022-12-03T13:43:44.367Z,11.23
2022-12-03T13:45:15.142Z,13.80
2022-12-03T13:46:36.564Z,10.02
2022-12-03T13:48:02.901Z,23.73
2022-12-03T13:49:24.541Z,16.10
2022-12-03T13:50:46.191Z,20.67
2022-12-03T13:52:15.721Z,24.98
2022-12-03T13:53:40.423Z,25.33
2022-12-03T13:55:03.982Z,18.33
2022-12-03T13:56:33.035Z,21.08
2022-12-03T13:57:54.721Z,15.70
2022-12-03T13:59:19.286Z,15.88
2022-12-03T14:00:42.975Z,7.45
2022-12-03T14:02:04.035Z,9.65
2022-12-03T14:03:25.189Z,8.57
2022-12-03T14:04:46.413Z,8.55
2022-12-03T14:06:07.632Z,13.57
2022-12-03T14:07:28.913Z,25.85
2022-12-03T14:08:50.067Z,24.25
2022-12-03T14:10:12.287Z,26.65
2022-12-03T14:11:51.955Z,29.60
2022-12-03T14:13:13.132Z,30.63
2022-12-03T14:14:34.973Z,39.58
2022-12-03T14:15:56.123Z,46.45
2022-12-03T14:17:17.345Z,41.33
2022-12-03T14:18:38.380Z,84.50
2022-12-03T14:20:01.563Z,54.08
2022-12-03T14:21:25.770Z,35.60
2022-12-03T14:22:52.013Z,56.90
2022-12-03T14:24:17.103Z,31.75
2022-12-03T14:25:38.381Z,48.83
2022-12-03T14:26:59.503Z,54.50
2022-12-03T14:28:20.850Z,51.42
2022-12-03T14:29:41.707Z,34.67
2022-12-03T14:31:02.882Z,27.77
2022-12-03T14:32:23.974Z,24.85
2022-12-03T14:33:44.997Z,26.30
2022-12-03T14:35:09.871Z,29.25
2022-12-03T14:36:31.214Z,27.38
2022-12-03T14:37:52.277Z,34.85
2022-12-03T14:39:13.358Z,30.27
2022-12-03T14:40:34.669Z,29.45
2022-12-03T14:42:14.368Z,29.73
2022-12-03T14:44:56.287Z,29.02
2022-12-03T14:46:17.217Z,32.15
2022-12-03T14:47:38.731Z,38.70
2022-12-03T14:48:59.638Z,51.38
2022-12-03T14:50:20.999Z,76.22
2022-12-03T14:51:42.010Z,85.65
2022-12-03T14:53:03.256Z,101.57
2022-12-03T14:54:24.716Z,109.30
2022-12-03T14:55:48.097Z,125.05
2022-12-03T14:57:09.563Z,132.05
2022-12-03T14:58:30.656Z,128.00
2022-12-03T14:59:55.601Z,121.68
2022-12-03T15:01:16.889Z,108.20
2022-12-03T15:02:38.121Z,114.70
2022-12-03T15:04:01.737Z,136.38
2022-12-03T15:05:28.157Z,147.75
2022-12-03T15:06:49.865Z,149.70
2022-12-03T15:08:11.113Z,131.50
2022-12-03T15:09:32.467Z,150.75
2022-12-03T15:10:54.010Z,128.13
2022-12-03T15:12:14.806Z,125.30
2022-12-03T15:13:36.000Z,111.40
2022-12-03T15:14:57.119Z,104.30
2022-12-03T15:16:18.431Z,117.72
2022-12-03T15:17:40.026Z,337.33
2022-12-03T15:19:01.369Z,186.23
2022-12-03T15:20:22.887Z,115.82
2022-12-03T15:21:44.143Z,77.57
2022-12-03T15:23:08.796Z,75.32
2022-12-03T15:24:32.164Z,75.60
2022-12-03T15:25:53.533Z,66.18
2022-12-03T15:27:16.161Z,60.95
2022-12-03T15:28:37.330Z,49.85
2022-12-03T15:29:58.474Z,85.70
2022-12-03T15:31:19.513Z,83.40
2022-12-03T15:32:40.729Z,116.85
2022-12-03T15:34:01.739Z,174.27
2022-12-03T15:35:23.185Z,287.75
2022-12-03T15:36:44.348Z,254.13
2022-12-03T15:38:05.548Z,257.02
2022-12-03T15:39:26.791Z,324.98
2022-12-03T15:40:48.044Z,328.38
2022-12-03T15:42:11.393Z,209.52
2022-12-03T15:43:32.516Z,468.90
2022-12-03T15:44:53.669Z,102.88
2022-12-03T15:46:14.636Z,52.17
2022-12-03T15:47:35.368Z,46.55
2022-12-03T15:48:56.493Z,37.22
2022-12-03T15:50:17.772Z,42.70
2022-12-03T15:51:39.342Z,35.85
2022-12-03T15:53:00.617Z,36.17
2022-12-03T15:54:21.943Z,38.20
2022-12-03T15:55:43.232Z,40.15
2022-12-03T15:57:04.192Z,40.88
2022-12-03T15:58:25.411Z,55.35
2022-12-03T15:59:46.313Z,59.10
2022-12-03T16:01:08.953Z,56.33
2022-12-03T16:02:33.881Z,55.13
2022-12-03T16:03:55.024Z,38.80
2022-12-03T16:05:16.643Z,29.77
2022-12-03T16:06:37.853Z,31.70
2022-12-03T16:07:59.164Z,32.70
2022-12-03T16:09:26.687Z,34.30
2022-12-03T16:10:48.565Z,35.97
2022-12-03T16:12:09.558Z,33.83
2022-12-03T16:13:30.830Z,35.45
2022-12-03T16:14:51.983Z,43.67
2022-12-03T16:16:13.275Z,42.28
2022-12-03T16:17:36.928Z,39.78
2022-12-03T16:18:58.278Z,39.40
2022-12-03T16:20:19.406Z,36.95
2022-12-03T16:21:40.692Z,39.70
2022-12-03T16:23:01.828Z,31.63
2022-12-03T16:24:22.934Z,27.73
2022-12-03T16:25:44.133Z,38.90
2022-12-03T16:27:05.370Z,76.65
2022-12-03T16:28:26.465Z,76.45
2022-12-03T16:29:47.741Z,62.33
2022-12-03T16:31:08.902Z,56.72
2022-12-03T16:32:30.061Z,57.80
2022-12-03T16:33:51.368Z,59.72
2022-12-03T16:35:12.837Z,42.67
2022-12-03T16:36:34.036Z,48.78
2022-12-03T16:37:55.226Z,61.67
2022-12-03T16:39:16.643Z,69.47
2022-12-03T16:40:38.157Z,49.05
2022-12-03T16:41:59.435Z,49.00
2022-12-03T16:43:20.826Z,75.35
2022-12-03T16:45:05.139Z,69.70
2022-12-03T16:46:26.740Z,53.50
2022-12-03T16:47:48.192Z,44.53
2022-12-03T16:49:09.482Z,55.92
2022-12-03T16:50:30.650Z,51.50
2022-12-03T16:51:52.120Z,45.20
2022-12-03T16:53:13.527Z,49.90
2022-12-03T16:54:34.756Z,46.20
2022-12-03T16:55:55.686Z,42.42
2022-12-03T16:57:17.042Z,45.08
2022-12-03T16:58:46.758Z,39.85
2022-12-03T17:00:26.651Z,46.88
2022-12-03T17:01:47.586Z,45.67
2022-12-03T17:03:08.816Z,36.05
2022-12-03T17:04:32.970Z,33.83
2022-12-03T17:05:54.251Z,28.98
2022-12-03T17:07:15.127Z,27.65
2022-12-03T17:08:36.712Z,31.27
2022-12-03T17:09:58.026Z,69.55
2022-12-03T17:11:19.448Z,89.40
2022-12-03T17:13:07.804Z,77.03
2022-12-03T17:14:21.584Z,86.88
2022-12-03T17:15:42.764Z,75.05
2022-12-03T17:17:03.839Z,65.63
2022-12-03T17:18:25.997Z,57.78
2022-12-03T17:19:47.373Z,55.33
2022-12-03T17:21:08.533Z,54.00
2022-12-03T17:22:29.582Z,56.08
2022-12-03T17:23:51.153Z,54.80
2022-12-03T17:25:12.832Z,54.83
2022-12-03T17:26:33.998Z,57.22
2022-12-03T17:27:55.033Z,46.30
2022-12-03T17:29:15.997Z,53.15
2022-12-03T17:30:37.202Z,57.22
2022-12-03T17:31:58.504Z,57.28
2022-12-03T17:33:19.631Z,54.55
2022-12-03T17:34:40.599Z,58.17
2022-12-03T17:36:02.004Z,63.38
2022-12-03T17:37:23.068Z,53.67
2022-12-03T17:38:44.326Z,58.80
2022-12-03T17:40:07.517Z,43.95
2022-12-03T17:41:28.705Z,57.13
2022-12-03T17:42:49.887Z,48.45
2022-12-03T17:44:15.094Z,58.05
2022-12-03T17:45:38.780Z,59.15
2022-12-03T17:47:00.288Z,91.72
2022-12-03T17:48:21.788Z,88.07
2022-12-03T17:49:42.692Z,33.90
2022-12-03T17:51:03.605Z,33.60
2022-12-03T17:52:24.713Z,37.35
2022-12-03T17:53:45.705Z,29.90
2022-12-03T17:55:14.006Z,23.10
2022-12-03T17:56:39.445Z,27.38
2022-12-03T17:58:00.712Z,27.13
2022-12-03T17:59:21.831Z,28.02
2022-12-03T18:00:43.945Z,31.70
2022-12-03T18:02:04.975Z,28.77
2022-12-03T18:03:25.980Z,36.97
2022-12-03T18:04:47.195Z,34.70
2022-12-03T18:06:08.400Z,25.33